sensor_id;sensor_type;location;lat;lon;timestamp;P1;durP1;ratioP1;P2;durP2;ratioP2
4726;SDS011;2377;51.734;8.950;2023-04-07T00:01:44;12.63;;;8.50;;
4726;SDS011;2377;51.734;8.950;2023-04-07T00:04:11;14.67;;;9.40;;
4726;SDS011;2377;51.734;8.950;2023-04-07T00:06:38;12.73;;;8.97;;
4726;SDS011;2377;51.734;8.950;2023-04-07T00:09:07;14.10;;;8.30;;
4726;SDS011;2377;51.734;8.950;2023-04-07T00:11:34;11.70;;;7.77;;
4726;SDS011;2377;51.734;8.950;2023-04-07T00:14:03;12.10;;;8.13;;
4726;SDS011;2377;51.734;8.950;2023-04-07T00:16:30;13.53;;;8.80;;
4726;SDS011;2377;51.734;8.950;2023-04-07T00:18:57;12.83;;;8.93;;
4726;SDS011;2377;51.734;8.950;2023-04-07T00:21:24;11.23;;;8.17;;
4726;SDS011;2377;51.734;8.950;2023-04-07T00:23:52;11.97;;;8.23;;
4726;SDS011;2377;51.734;8.950;2023-04-07T00:26:19;13.83;;;9.07;;
4726;SDS011;2377;51.734;8.950;2023-04-07T00:28:46;11.50;;;8.20;;
4726;SDS011;2377;51.734;8.950;2023-04-07T00:31:14;12.87;;;9.33;;
4726;SDS011;2377;51.734;8.950;2023-04-07T00:33:41;11.10;;;8.47;;
4726;SDS011;2377;51.734;8.950;2023-04-07T00:36:08;12.73;;;8.83;;
4726;SDS011;2377;51.734;8.950;2023-04-07T00:38:35;13.40;;;9.30;;
4726;SDS011;2377;51.734;8.950;2023-04-07T00:41:02;12.93;;;9.27;;
4726;SDS011;2377;51.734;8.950;2023-04-07T00:43:29;12.70;;;7.50;;
4726;SDS011;2377;51.734;8.950;2023-04-07T00:45:57;11.63;;;8.07;;
4726;SDS011;2377;51.734;8.950;2023-04-07T00:48:25;12.90;;;9.17;;
4726;SDS011;2377;51.734;8.950;2023-04-07T00:50:53;12.80;;;8.77;;
4726;SDS011;2377;51.734;8.950;2023-04-07T00:53:20;15.83;;;9.03;;
4726;SDS011;2377;51.734;8.950;2023-04-07T00:55:47;14.90;;;8.63;;
4726;SDS011;2377;51.734;8.950;2023-04-07T00:58:14;12.40;;;8.90;;
4726;SDS011;2377;51.734;8.950;2023-04-07T01:00:43;15.83;;;9.77;;
4726;SDS011;2377;51.734;8.950;2023-04-07T01:03:17;12.30;;;9.17;;
4726;SDS011;2377;51.734;8.950;2023-04-07T01:05:57;11.67;;;9.10;;
4726;SDS011;2377;51.734;8.950;2023-04-07T01:08:29;15.43;;;11.03;;
4726;SDS011;2377;51.734;8.950;2023-04-07T01:11:05;14.17;;;9.73;;
4726;SDS011;2377;51.734;8.950;2023-04-07T01:13:43;14.80;;;10.03;;
4726;SDS011;2377;51.734;8.950;2023-04-07T01:16:15;12.73;;;9.43;;
4726;SDS011;2377;51.734;8.950;2023-04-07T01:18:53;13.53;;;8.93;;
4726;SDS011;2377;51.734;8.950;2023-04-07T01:21:29;11.77;;;8.23;;
4726;SDS011;2377;51.734;8.950;2023-04-07T01:24:10;12.67;;;9.97;;
4726;SDS011;2377;51.734;8.950;2023-04-07T01:27:12;13.53;;;9.30;;
4726;SDS011;2377;51.734;8.950;2023-04-07T01:29:51;14.80;;;9.83;;
4726;SDS011;2377;51.734;8.950;2023-04-07T01:32:20;13.40;;;8.90;;
4726;SDS011;2377;51.734;8.950;2023-04-07T01:34:51;15.30;;;9.97;;
4726;SDS011;2377;51.734;8.950;2023-04-07T01:37:19;13.27;;;9.30;;
4726;SDS011;2377;51.734;8.950;2023-04-07T01:39:48;15.13;;;9.57;;
4726;SDS011;2377;51.734;8.950;2023-04-07T01:42:15;13.80;;;9.00;;
4726;SDS011;2377;51.734;8.950;2023-04-07T01:44:45;15.50;;;10.17;;
4726;SDS011;2377;51.734;8.950;2023-04-07T01:47:15;16.50;;;10.20;;
4726;SDS011;2377;51.734;8.950;2023-04-07T01:49:44;15.63;;;10.10;;
4726;SDS011;2377;51.734;8.950;2023-04-07T01:52:13;16.30;;;10.70;;
4726;SDS011;2377;51.734;8.950;2023-04-07T01:54:41;13.80;;;9.63;;
4726;SDS011;2377;51.734;8.950;2023-04-07T01:57:09;16.40;;;11.50;;
4726;SDS011;2377;51.734;8.950;2023-04-07T01:59:36;16.03;;;10.07;;
4726;SDS011;2377;51.734;8.950;2023-04-07T02:02:03;18.03;;;11.47;;
4726;SDS011;2377;51.734;8.950;2023-04-07T02:04:33;16.80;;;10.83;;
4726;SDS011;2377;51.734;8.950;2023-04-07T02:07:07;15.70;;;10.90;;
4726;SDS011;2377;51.734;8.950;2023-04-07T02:09:43;16.70;;;11.17;;
4726;SDS011;2377;51.734;8.950;2023-04-07T02:12:13;17.57;;;11.50;;
4726;SDS011;2377;51.734;8.950;2023-04-07T02:14:42;15.63;;;10.67;;
4726;SDS011;2377;51.734;8.950;2023-04-07T02:17:10;20.53;;;12.90;;
4726;SDS011;2377;51.734;8.950;2023-04-07T02:19:41;14.10;;;10.00;;
4726;SDS011;2377;51.734;8.950;2023-04-07T02:22:10;16.97;;;11.50;;
4726;SDS011;2377;51.734;8.950;2023-04-07T02:24:40;16.03;;;10.57;;
4726;SDS011;2377;51.734;8.950;2023-04-07T02:27:07;16.23;;;10.90;;
4726;SDS011;2377;51.734;8.950;2023-04-07T02:29:34;18.53;;;11.50;;
4726;SDS011;2377;51.734;8.950;2023-04-07T02:32:01;16.73;;;10.77;;
4726;SDS011;2377;51.734;8.950;2023-04-07T02:34:29;18.30;;;12.30;;
4726;SDS011;2377;51.734;8.950;2023-04-07T02:36:57;18.60;;;11.83;;
4726;SDS011;2377;51.734;8.950;2023-04-07T02:39:24;20.10;;;12.43;;
4726;SDS011;2377;51.734;8.950;2023-04-07T02:41:51;18.00;;;11.90;;
4726;SDS011;2377;51.734;8.950;2023-04-07T02:44:19;18.50;;;11.73;;
4726;SDS011;2377;51.734;8.950;2023-04-07T02:46:46;19.53;;;11.80;;
4726;SDS011;2377;51.734;8.950;2023-04-07T02:49:13;15.40;;;11.23;;
4726;SDS011;2377;51.734;8.950;2023-04-07T02:51:40;17.13;;;10.77;;
4726;SDS011;2377;51.734;8.950;2023-04-07T02:54:08;18.33;;;12.70;;
4726;SDS011;2377;51.734;8.950;2023-04-07T02:56:35;18.27;;;12.97;;
4726;SDS011;2377;51.734;8.950;2023-04-07T02:59:02;15.97;;;10.57;;
4726;SDS011;2377;51.734;8.950;2023-04-07T03:01:29;18.10;;;11.93;;
4726;SDS011;2377;51.734;8.950;2023-04-07T03:03:58;19.00;;;12.47;;
4726;SDS011;2377;51.734;8.950;2023-04-07T03:06:25;17.13;;;11.93;;
4726;SDS011;2377;51.734;8.950;2023-04-07T03:08:52;19.23;;;12.73;;
4726;SDS011;2377;51.734;8.950;2023-04-07T03:11:21;19.30;;;12.00;;
4726;SDS011;2377;51.734;8.950;2023-04-07T03:13:48;20.27;;;13.57;;
4726;SDS011;2377;51.734;8.950;2023-04-07T03:16:15;16.17;;;11.40;;
4726;SDS011;2377;51.734;8.950;2023-04-07T03:18:42;19.40;;;13.00;;
4726;SDS011;2377;51.734;8.950;2023-04-07T03:21:09;21.60;;;14.50;;
4726;SDS011;2377;51.734;8.950;2023-04-07T03:23:36;20.20;;;13.13;;
4726;SDS011;2377;51.734;8.950;2023-04-07T03:26:04;18.53;;;12.20;;
4726;SDS011;2377;51.734;8.950;2023-04-07T03:28:32;21.60;;;14.07;;
4726;SDS011;2377;51.734;8.950;2023-04-07T03:31:02;19.23;;;12.30;;
4726;SDS011;2377;51.734;8.950;2023-04-07T03:33:29;18.50;;;12.60;;
4726;SDS011;2377;51.734;8.950;2023-04-07T03:35:56;21.50;;;13.40;;
4726;SDS011;2377;51.734;8.950;2023-04-07T03:38:24;18.87;;;12.57;;
4726;SDS011;2377;51.734;8.950;2023-04-07T03:40:54;21.80;;;13.37;;
4726;SDS011;2377;51.734;8.950;2023-04-07T03:43:21;20.90;;;13.77;;
4726;SDS011;2377;51.734;8.950;2023-04-07T03:45:50;23.13;;;13.03;;
4726;SDS011;2377;51.734;8.950;2023-04-07T03:48:18;20.60;;;13.90;;
4726;SDS011;2377;51.734;8.950;2023-04-07T03:50:45;18.20;;;11.57;;
4726;SDS011;2377;51.734;8.950;2023-04-07T03:53:12;20.57;;;13.93;;
4726;SDS011;2377;51.734;8.950;2023-04-07T03:55:40;19.80;;;12.80;;
4726;SDS011;2377;51.734;8.950;2023-04-07T03:58:08;19.40;;;13.27;;
4726;SDS011;2377;51.734;8.950;2023-04-07T04:00:35;17.97;;;12.53;;
4726;SDS011;2377;51.734;8.950;2023-04-07T04:03:04;21.93;;;12.20;;
4726;SDS011;2377;51.734;8.950;2023-04-07T04:05:31;19.13;;;13.07;;
4726;SDS011;2377;51.734;8.950;2023-04-07T04:07:58;18.20;;;12.33;;
4726;SDS011;2377;51.734;8.950;2023-04-07T04:10:25;21.00;;;14.17;;
4726;SDS011;2377;51.734;8.950;2023-04-07T04:12:52;19.70;;;12.73;;
4726;SDS011;2377;51.734;8.950;2023-04-07T04:15:19;22.17;;;13.60;;
4726;SDS011;2377;51.734;8.950;2023-04-07T04:17:46;18.90;;;12.03;;
4726;SDS011;2377;51.734;8.950;2023-04-07T04:20:15;21.20;;;14.20;;
4726;SDS011;2377;51.734;8.950;2023-04-07T04:22:42;20.27;;;13.27;;
4726;SDS011;2377;51.734;8.950;2023-04-07T04:25:09;19.83;;;12.50;;
4726;SDS011;2377;51.734;8.950;2023-04-07T04:27:36;19.20;;;12.93;;
4726;SDS011;2377;51.734;8.950;2023-04-07T04:30:04;19.37;;;12.80;;
4726;SDS011;2377;51.734;8.950;2023-04-07T04:32:33;19.03;;;13.70;;
4726;SDS011;2377;51.734;8.950;2023-04-07T04:35:00;20.60;;;12.60;;
4726;SDS011;2377;51.734;8.950;2023-04-07T04:37:28;18.10;;;11.90;;
4726;SDS011;2377;51.734;8.950;2023-04-07T04:39:56;16.33;;;11.30;;
4726;SDS011;2377;51.734;8.950;2023-04-07T04:42:23;19.50;;;12.00;;
4726;SDS011;2377;51.734;8.950;2023-04-07T04:44:51;17.20;;;11.23;;
4726;SDS011;2377;51.734;8.950;2023-04-07T04:47:19;18.30;;;12.43;;
4726;SDS011;2377;51.734;8.950;2023-04-07T04:49:46;16.27;;;11.67;;
4726;SDS011;2377;51.734;8.950;2023-04-07T04:52:13;17.50;;;11.30;;
4726;SDS011;2377;51.734;8.950;2023-04-07T04:54:41;16.90;;;11.20;;
4726;SDS011;2377;51.734;8.950;2023-04-07T04:57:08;15.73;;;10.70;;
4726;SDS011;2377;51.734;8.950;2023-04-07T04:59:35;17.57;;;11.33;;
4726;SDS011;2377;51.734;8.950;2023-04-07T05:02:03;18.07;;;12.27;;
4726;SDS011;2377;51.734;8.950;2023-04-07T05:04:30;17.87;;;11.80;;
4726;SDS011;2377;51.734;8.950;2023-04-07T05:06:58;17.33;;;11.33;;
4726;SDS011;2377;51.734;8.950;2023-04-07T05:09:25;17.37;;;11.83;;
4726;SDS011;2377;51.734;8.950;2023-04-07T05:11:53;17.70;;;11.33;;
4726;SDS011;2377;51.734;8.950;2023-04-07T05:14:21;16.43;;;11.20;;
4726;SDS011;2377;51.734;8.950;2023-04-07T05:16:49;19.40;;;11.47;;
4726;SDS011;2377;51.734;8.950;2023-04-07T05:19:16;20.93;;;11.73;;
4726;SDS011;2377;51.734;8.950;2023-04-07T05:21:43;16.60;;;10.90;;
4726;SDS011;2377;51.734;8.950;2023-04-07T05:24:11;16.00;;;11.00;;
4726;SDS011;2377;51.734;8.950;2023-04-07T05:26:38;15.57;;;10.47;;
4726;SDS011;2377;51.734;8.950;2023-04-07T05:29:06;16.10;;;10.40;;
4726;SDS011;2377;51.734;8.950;2023-04-07T05:31:33;20.10;;;12.80;;
4726;SDS011;2377;51.734;8.950;2023-04-07T05:34:01;18.10;;;11.40;;
4726;SDS011;2377;51.734;8.950;2023-04-07T05:36:28;12.90;;;8.90;;
4726;SDS011;2377;51.734;8.950;2023-04-07T05:38:55;16.10;;;10.67;;
4726;SDS011;2377;51.734;8.950;2023-04-07T05:41:22;16.73;;;10.90;;
4726;SDS011;2377;51.734;8.950;2023-04-07T05:43:50;19.03;;;12.50;;
4726;SDS011;2377;51.734;8.950;2023-04-07T05:46:18;18.30;;;11.13;;
4726;SDS011;2377;51.734;8.950;2023-04-07T05:48:45;17.13;;;10.37;;
4726;SDS011;2377;51.734;8.950;2023-04-07T05:51:12;13.13;;;9.60;;
4726;SDS011;2377;51.734;8.950;2023-04-07T05:53:39;15.73;;;10.30;;
4726;SDS011;2377;51.734;8.950;2023-04-07T05:56:06;17.33;;;11.17;;
4726;SDS011;2377;51.734;8.950;2023-04-07T05:58:33;17.00;;;10.60;;
4726;SDS011;2377;51.734;8.950;2023-04-07T06:01:00;14.73;;;10.70;;
4726;SDS011;2377;51.734;8.950;2023-04-07T06:03:29;17.83;;;11.57;;
4726;SDS011;2377;51.734;8.950;2023-04-07T06:05:56;20.00;;;12.47;;
4726;SDS011;2377;51.734;8.950;2023-04-07T06:08:24;13.20;;;9.77;;
4726;SDS011;2377;51.734;8.950;2023-04-07T06:10:51;19.50;;;11.40;;
4726;SDS011;2377;51.734;8.950;2023-04-07T06:13:18;14.47;;;10.13;;
4726;SDS011;2377;51.734;8.950;2023-04-07T06:15:45;14.53;;;10.40;;
4726;SDS011;2377;51.734;8.950;2023-04-07T06:18:13;15.20;;;10.90;;
4726;SDS011;2377;51.734;8.950;2023-04-07T06:20:42;14.57;;;9.90;;
4726;SDS011;2377;51.734;8.950;2023-04-07T06:23:09;15.50;;;9.70;;
4726;SDS011;2377;51.734;8.950;2023-04-07T06:25:36;17.43;;;12.23;;
4726;SDS011;2377;51.734;8.950;2023-04-07T06:28:03;15.93;;;9.53;;
4726;SDS011;2377;51.734;8.950;2023-04-07T06:30:30;15.67;;;9.80;;
4726;SDS011;2377;51.734;8.950;2023-04-07T06:32:58;14.50;;;9.27;;
4726;SDS011;2377;51.734;8.950;2023-04-07T06:35:25;15.50;;;10.67;;
4726;SDS011;2377;51.734;8.950;2023-04-07T06:37:53;11.83;;;8.90;;
4726;SDS011;2377;51.734;8.950;2023-04-07T06:40:20;13.73;;;9.63;;
4726;SDS011;2377;51.734;8.950;2023-04-07T06:42:48;16.83;;;9.33;;
4726;SDS011;2377;51.734;8.950;2023-04-07T06:45:15;13.73;;;10.20;;
4726;SDS011;2377;51.734;8.950;2023-04-07T06:47:42;12.60;;;8.97;;
4726;SDS011;2377;51.734;8.950;2023-04-07T06:50:10;13.00;;;8.73;;
4726;SDS011;2377;51.734;8.950;2023-04-07T06:52:37;16.03;;;10.40;;
4726;SDS011;2377;51.734;8.950;2023-04-07T06:55:06;12.50;;;8.87;;
4726;SDS011;2377;51.734;8.950;2023-04-07T06:57:34;12.60;;;8.00;;
4726;SDS011;2377;51.734;8.950;2023-04-07T07:00:01;10.80;;;7.80;;
4726;SDS011;2377;51.734;8.950;2023-04-07T07:02:31;14.13;;;9.23;;
4726;SDS011;2377;51.734;8.950;2023-04-07T07:04:59;12.50;;;9.03;;
4726;SDS011;2377;51.734;8.950;2023-04-07T07:07:28;12.60;;;8.53;;
4726;SDS011;2377;51.734;8.950;2023-04-07T07:09:55;14.50;;;8.97;;
4726;SDS011;2377;51.734;8.950;2023-04-07T07:12:23;13.37;;;9.03;;
4726;SDS011;2377;51.734;8.950;2023-04-07T07:14:50;12.30;;;8.23;;
4726;SDS011;2377;51.734;8.950;2023-04-07T07:17:17;12.10;;;8.70;;
4726;SDS011;2377;51.734;8.950;2023-04-07T07:19:44;14.47;;;8.67;;
4726;SDS011;2377;51.734;8.950;2023-04-07T07:22:12;12.50;;;8.47;;
4726;SDS011;2377;51.734;8.950;2023-04-07T07:24:39;11.77;;;7.77;;
4726;SDS011;2377;51.734;8.950;2023-04-07T07:27:06;13.13;;;7.00;;
4726;SDS011;2377;51.734;8.950;2023-04-07T07:29:34;10.60;;;7.53;;
4726;SDS011;2377;51.734;8.950;2023-04-07T07:32:01;9.57;;;7.07;;
4726;SDS011;2377;51.734;8.950;2023-04-07T07:34:28;11.10;;;7.50;;
4726;SDS011;2377;51.734;8.950;2023-04-07T07:36:55;11.37;;;8.03;;
4726;SDS011;2377;51.734;8.950;2023-04-07T07:39:23;10.70;;;7.90;;
4726;SDS011;2377;51.734;8.950;2023-04-07T07:41:51;9.60;;;6.90;;
4726;SDS011;2377;51.734;8.950;2023-04-07T07:44:18;11.87;;;8.20;;
4726;SDS011;2377;51.734;8.950;2023-04-07T07:46:46;8.93;;;6.50;;
4726;SDS011;2377;51.734;8.950;2023-04-07T07:49:13;13.03;;;8.17;;
4726;SDS011;2377;51.734;8.950;2023-04-07T07:51:41;12.07;;;8.30;;
4726;SDS011;2377;51.734;8.950;2023-04-07T07:54:10;11.30;;;7.90;;
4726;SDS011;2377;51.734;8.950;2023-04-07T07:56:37;11.73;;;8.37;;
4726;SDS011;2377;51.734;8.950;2023-04-07T07:59:05;12.43;;;8.60;;
4726;SDS011;2377;51.734;8.950;2023-04-07T08:01:32;12.23;;;8.00;;
4726;SDS011;2377;51.734;8.950;2023-04-07T08:04:01;13.03;;;8.00;;
4726;SDS011;2377;51.734;8.950;2023-04-07T08:06:28;10.27;;;7.37;;
4726;SDS011;2377;51.734;8.950;2023-04-07T08:08:56;10.83;;;7.63;;
4726;SDS011;2377;51.734;8.950;2023-04-07T08:11:23;13.03;;;7.40;;
4726;SDS011;2377;51.734;8.950;2023-04-07T08:13:51;9.27;;;6.80;;
4726;SDS011;2377;51.734;8.950;2023-04-07T08:16:18;8.73;;;6.83;;
4726;SDS011;2377;51.734;8.950;2023-04-07T08:18:46;13.60;;;8.07;;
4726;SDS011;2377;51.734;8.950;2023-04-07T08:21:15;10.10;;;7.53;;
4726;SDS011;2377;51.734;8.950;2023-04-07T08:23:42;9.20;;;6.80;;
4726;SDS011;2377;51.734;8.950;2023-04-07T08:26:10;10.53;;;7.17;;
4726;SDS011;2377;51.734;8.950;2023-04-07T08:28:37;9.90;;;7.47;;
4726;SDS011;2377;51.734;8.950;2023-04-07T08:31:04;10.13;;;6.40;;
4726;SDS011;2377;51.734;8.950;2023-04-07T08:33:32;11.07;;;7.13;;
4726;SDS011;2377;51.734;8.950;2023-04-07T08:35:59;8.30;;;5.80;;
4726;SDS011;2377;51.734;8.950;2023-04-07T08:38:27;9.03;;;6.70;;
4726;SDS011;2377;51.734;8.950;2023-04-07T08:40:57;9.10;;;6.30;;
4726;SDS011;2377;51.734;8.950;2023-04-07T08:43:28;7.90;;;6.20;;
4726;SDS011;2377;51.734;8.950;2023-04-07T08:45:56;10.03;;;7.17;;
4726;SDS011;2377;51.734;8.950;2023-04-07T08:48:24;8.37;;;6.37;;
4726;SDS011;2377;51.734;8.950;2023-04-07T08:50:58;8.47;;;6.37;;
4726;SDS011;2377;51.734;8.950;2023-04-07T08:53:35;8.77;;;6.30;;
4726;SDS011;2377;51.734;8.950;2023-04-07T08:56:07;8.40;;;6.13;;
4726;SDS011;2377;51.734;8.950;2023-04-07T08:58:36;8.97;;;6.80;;
4726;SDS011;2377;51.734;8.950;2023-04-07T09:01:05;10.87;;;6.47;;
4726;SDS011;2377;51.734;8.950;2023-04-07T09:03:34;8.00;;;5.97;;
4726;SDS011;2377;51.734;8.950;2023-04-07T09:06:02;8.10;;;6.30;;
4726;SDS011;2377;51.734;8.950;2023-04-07T09:08:30;8.60;;;6.30;;
4726;SDS011;2377;51.734;8.950;2023-04-07T09:10:58;8.47;;;5.80;;
4726;SDS011;2377;51.734;8.950;2023-04-07T09:13:25;7.87;;;5.97;;
4726;SDS011;2377;51.734;8.950;2023-04-07T09:15:52;6.63;;;5.13;;
4726;SDS011;2377;51.734;8.950;2023-04-07T09:18:20;7.93;;;4.73;;
4726;SDS011;2377;51.734;8.950;2023-04-07T09:20:54;6.47;;;4.90;;
4726;SDS011;2377;51.734;8.950;2023-04-07T09:23:27;6.40;;;4.70;;
4726;SDS011;2377;51.734;8.950;2023-04-07T09:25:56;7.27;;;5.27;;
4726;SDS011;2377;51.734;8.950;2023-04-07T09:28:37;6.77;;;4.80;;
4726;SDS011;2377;51.734;8.950;2023-04-07T09:31:06;6.67;;;4.70;;
4726;SDS011;2377;51.734;8.950;2023-04-07T09:33:33;6.23;;;5.10;;
4726;SDS011;2377;51.734;8.950;2023-04-07T09:36:01;7.53;;;5.20;;
4726;SDS011;2377;51.734;8.950;2023-04-07T09:38:31;6.80;;;5.13;;
4726;SDS011;2377;51.734;8.950;2023-04-07T09:41:08;7.30;;;5.17;;
4726;SDS011;2377;51.734;8.950;2023-04-07T09:43:38;6.70;;;4.80;;
4726;SDS011;2377;51.734;8.950;2023-04-07T09:46:09;7.10;;;5.17;;
4726;SDS011;2377;51.734;8.950;2023-04-07T09:48:38;6.60;;;4.93;;
4726;SDS011;2377;51.734;8.950;2023-04-07T09:51:07;7.30;;;5.10;;
4726;SDS011;2377;51.734;8.950;2023-04-07T09:53:42;7.00;;;4.80;;
4726;SDS011;2377;51.734;8.950;2023-04-07T09:56:14;7.60;;;5.70;;
4726;SDS011;2377;51.734;8.950;2023-04-07T09:58:44;7.47;;;5.77;;
4726;SDS011;2377;51.734;8.950;2023-04-07T10:01:13;8.07;;;5.60;;
4726;SDS011;2377;51.734;8.950;2023-04-07T10:03:42;7.33;;;5.30;;
4726;SDS011;2377;51.734;8.950;2023-04-07T10:06:11;8.77;;;5.93;;
4726;SDS011;2377;51.734;8.950;2023-04-07T10:08:39;8.40;;;5.70;;
4726;SDS011;2377;51.734;8.950;2023-04-07T10:11:08;8.47;;;5.83;;
4726;SDS011;2377;51.734;8.950;2023-04-07T10:13:38;8.83;;;6.13;;
4726;SDS011;2377;51.734;8.950;2023-04-07T10:16:06;7.43;;;5.67;;
4726;SDS011;2377;51.734;8.950;2023-04-07T10:18:34;9.90;;;5.37;;
4726;SDS011;2377;51.734;8.950;2023-04-07T10:21:06;7.80;;;5.90;;
4726;SDS011;2377;51.734;8.950;2023-04-07T10:23:42;7.37;;;5.20;;
4726;SDS011;2377;51.734;8.950;2023-04-07T10:26:22;11.00;;;6.87;;
4726;SDS011;2377;51.734;8.950;2023-04-07T10:28:57;10.37;;;6.83;;
4726;SDS011;2377;51.734;8.950;2023-04-07T10:31:33;8.77;;;6.70;;
4726;SDS011;2377;51.734;8.950;2023-04-07T10:34:02;8.47;;;6.30;;
4726;SDS011;2377;51.734;8.950;2023-04-07T10:36:30;7.37;;;5.63;;
4726;SDS011;2377;51.734;8.950;2023-04-07T10:41:45;8.63;;;6.50;;
4726;SDS011;2377;51.734;8.950;2023-04-07T10:47:15;8.20;;;6.53;;
4726;SDS011;2377;51.734;8.950;2023-04-07T10:52:45;8.80;;;6.80;;
4726;SDS011;2377;51.734;8.950;2023-04-07T10:58:14;10.37;;;7.40;;
4726;SDS011;2377;51.734;8.950;2023-04-07T11:03:54;9.67;;;7.17;;
4726;SDS011;2377;51.734;8.950;2023-04-07T11:06:24;9.07;;;7.53;;
4726;SDS011;2377;51.734;8.950;2023-04-07T11:08:51;10.20;;;7.33;;
4726;SDS011;2377;51.734;8.950;2023-04-07T11:11:20;11.93;;;8.53;;
4726;SDS011;2377;51.734;8.950;2023-04-07T11:14:05;11.10;;;8.60;;
4726;SDS011;2377;51.734;8.950;2023-04-07T11:16:35;11.07;;;8.60;;
4726;SDS011;2377;51.734;8.950;2023-04-07T11:19:05;10.57;;;7.97;;
4726;SDS011;2377;51.734;8.950;2023-04-07T11:21:33;10.80;;;7.93;;
4726;SDS011;2377;51.734;8.950;2023-04-07T11:24:01;10.10;;;7.60;;
4726;SDS011;2377;51.734;8.950;2023-04-07T11:26:28;10.60;;;8.17;;
4726;SDS011;2377;51.734;8.950;2023-04-07T11:29:02;12.77;;;8.20;;
4726;SDS011;2377;51.734;8.950;2023-04-07T11:31:29;11.23;;;8.73;;
4726;SDS011;2377;51.734;8.950;2023-04-07T11:33:59;11.60;;;7.93;;
4726;SDS011;2377;51.734;8.950;2023-04-07T11:36:29;13.20;;;9.00;;
4726;SDS011;2377;51.734;8.950;2023-04-07T11:38:59;11.63;;;7.93;;
4726;SDS011;2377;51.734;8.950;2023-04-07T11:41:28;10.67;;;8.20;;
4726;SDS011;2377;51.734;8.950;2023-04-07T11:44:07;14.40;;;9.03;;
4726;SDS011;2377;51.734;8.950;2023-04-07T11:46:36;10.37;;;8.20;;
4726;SDS011;2377;51.734;8.950;2023-04-07T11:49:19;11.80;;;8.93;;
4726;SDS011;2377;51.734;8.950;2023-04-07T11:51:47;11.50;;;8.17;;
4726;SDS011;2377;51.734;8.950;2023-04-07T11:54:22;10.97;;;8.23;;
4726;SDS011;2377;51.734;8.950;2023-04-07T11:56:49;10.97;;;8.00;;
4726;SDS011;2377;51.734;8.950;2023-04-07T11:59:20;11.23;;;8.87;;
4726;SDS011;2377;51.734;8.950;2023-04-07T12:01:49;14.40;;;8.67;;
4726;SDS011;2377;51.734;8.950;2023-04-07T12:04:19;12.33;;;7.83;;
4726;SDS011;2377;51.734;8.950;2023-04-07T12:06:47;9.83;;;7.57;;
4726;SDS011;2377;51.734;8.950;2023-04-07T12:09:24;12.07;;;8.87;;
4726;SDS011;2377;51.734;8.950;2023-04-07T12:11:54;10.50;;;8.13;;
4726;SDS011;2377;51.734;8.950;2023-04-07T12:14:22;13.67;;;10.53;;
4726;SDS011;2377;51.734;8.950;2023-04-07T12:16:50;15.97;;;10.40;;
4726;SDS011;2377;51.734;8.950;2023-04-07T12:19:21;18.87;;;9.97;;
4726;SDS011;2377;51.734;8.950;2023-04-07T12:21:48;13.80;;;10.30;;
4726;SDS011;2377;51.734;8.950;2023-04-07T12:24:16;13.03;;;10.27;;
4726;SDS011;2377;51.734;8.950;2023-04-07T12:26:43;13.27;;;10.20;;
4726;SDS011;2377;51.734;8.950;2023-04-07T12:29:10;13.93;;;10.73;;
4726;SDS011;2377;51.734;8.950;2023-04-07T12:31:37;13.13;;;10.00;;
4726;SDS011;2377;51.734;8.950;2023-04-07T12:34:06;13.87;;;10.10;;
4726;SDS011;2377;51.734;8.950;2023-04-07T12:36:35;12.87;;;9.90;;
4726;SDS011;2377;51.734;8.950;2023-04-07T12:39:02;12.17;;;9.43;;
4726;SDS011;2377;51.734;8.950;2023-04-07T12:41:29;14.00;;;10.87;;
4726;SDS011;2377;51.734;8.950;2023-04-07T12:43:56;13.10;;;10.17;;
4726;SDS011;2377;51.734;8.950;2023-04-07T12:46:23;14.80;;;9.60;;
4726;SDS011;2377;51.734;8.950;2023-04-07T12:48:51;13.57;;;9.73;;
4726;SDS011;2377;51.734;8.950;2023-04-07T12:51:18;13.23;;;10.50;;
4726;SDS011;2377;51.734;8.950;2023-04-07T12:53:46;16.33;;;11.27;;
4726;SDS011;2377;51.734;8.950;2023-04-07T12:56:13;16.50;;;11.60;;
4726;SDS011;2377;51.734;8.950;2023-04-07T12:58:40;14.40;;;10.43;;
4726;SDS011;2377;51.734;8.950;2023-04-07T13:01:07;14.50;;;11.17;;
4726;SDS011;2377;51.734;8.950;2023-04-07T13:03:34;16.20;;;11.60;;
4726;SDS011;2377;51.734;8.950;2023-04-07T13:06:02;15.87;;;12.40;;
4726;SDS011;2377;51.734;8.950;2023-04-07T13:08:30;17.23;;;11.00;;
4726;SDS011;2377;51.734;8.950;2023-04-07T13:10:59;13.80;;;10.10;;
4726;SDS011;2377;51.734;8.950;2023-04-07T13:13:26;14.10;;;10.40;;
4726;SDS011;2377;51.734;8.950;2023-04-07T13:15:55;13.80;;;10.90;;
4726;SDS011;2377;51.734;8.950;2023-04-07T13:18:22;12.40;;;9.00;;
4726;SDS011;2377;51.734;8.950;2023-04-07T13:20:50;14.20;;;10.63;;
4726;SDS011;2377;51.734;8.950;2023-04-07T13:23:17;13.50;;;11.13;;
4726;SDS011;2377;51.734;8.950;2023-04-07T13:25:44;13.10;;;9.80;;
4726;SDS011;2377;51.734;8.950;2023-04-07T13:28:13;16.70;;;12.20;;
4726;SDS011;2377;51.734;8.950;2023-04-07T13:30:42;14.13;;;11.30;;
4726;SDS011;2377;51.734;8.950;2023-04-07T13:33:09;16.27;;;11.53;;
4726;SDS011;2377;51.734;8.950;2023-04-07T13:35:36;16.63;;;11.17;;
4726;SDS011;2377;51.734;8.950;2023-04-07T13:38:03;14.27;;;11.23;;
4726;SDS011;2377;51.734;8.950;2023-04-07T13:40:31;14.03;;;10.40;;
4726;SDS011;2377;51.734;8.950;2023-04-07T13:42:58;15.70;;;11.27;;
4726;SDS011;2377;51.734;8.950;2023-04-07T13:45:27;16.20;;;11.77;;
4726;SDS011;2377;51.734;8.950;2023-04-07T13:47:54;16.57;;;12.00;;
4726;SDS011;2377;51.734;8.950;2023-04-07T13:50:21;14.23;;;11.10;;
4726;SDS011;2377;51.734;8.950;2023-04-07T13:52:48;13.13;;;9.77;;
4726;SDS011;2377;51.734;8.950;2023-04-07T13:55:15;15.00;;;10.40;;
4726;SDS011;2377;51.734;8.950;2023-04-07T13:57:44;14.77;;;11.37;;
4726;SDS011;2377;51.734;8.950;2023-04-07T14:00:11;13.50;;;10.60;;
4726;SDS011;2377;51.734;8.950;2023-04-07T14:02:41;15.03;;;11.03;;
4726;SDS011;2377;51.734;8.950;2023-04-07T14:05:09;15.47;;;11.70;;
4726;SDS011;2377;51.734;8.950;2023-04-07T14:07:36;12.90;;;10.13;;
4726;SDS011;2377;51.734;8.950;2023-04-07T14:10:04;12.30;;;9.10;;
4726;SDS011;2377;51.734;8.950;2023-04-07T14:12:32;13.77;;;10.77;;
4726;SDS011;2377;51.734;8.950;2023-04-07T14:14:59;16.37;;;12.27;;
4726;SDS011;2377;51.734;8.950;2023-04-07T14:17:27;15.37;;;10.77;;
4726;SDS011;2377;51.734;8.950;2023-04-07T14:19:56;18.43;;;11.40;;
4726;SDS011;2377;51.734;8.950;2023-04-07T14:22:23;12.53;;;10.27;;
4726;SDS011;2377;51.734;8.950;2023-04-07T14:24:50;13.67;;;10.00;;
4726;SDS011;2377;51.734;8.950;2023-04-07T14:27:17;13.70;;;10.07;;
4726;SDS011;2377;51.734;8.950;2023-04-07T14:29:46;14.27;;;9.53;;
4726;SDS011;2377;51.734;8.950;2023-04-07T14:32:14;12.67;;;9.90;;
4726;SDS011;2377;51.734;8.950;2023-04-07T14:34:41;14.53;;;10.67;;
4726;SDS011;2377;51.734;8.950;2023-04-07T14:37:09;13.53;;;10.67;;
4726;SDS011;2377;51.734;8.950;2023-04-07T14:39:38;14.63;;;10.00;;
4726;SDS011;2377;51.734;8.950;2023-04-07T14:42:05;16.83;;;11.50;;
4726;SDS011;2377;51.734;8.950;2023-04-07T14:44:32;14.50;;;10.30;;
4726;SDS011;2377;51.734;8.950;2023-04-07T14:46:59;14.10;;;10.80;;
4726;SDS011;2377;51.734;8.950;2023-04-07T14:49:26;13.80;;;10.90;;
4726;SDS011;2377;51.734;8.950;2023-04-07T14:51:53;14.17;;;10.30;;
4726;SDS011;2377;51.734;8.950;2023-04-07T14:54:22;15.30;;;10.97;;
4726;SDS011;2377;51.734;8.950;2023-04-07T14:56:49;11.33;;;9.47;;
4726;SDS011;2377;51.734;8.950;2023-04-07T14:59:16;13.97;;;9.93;;
4726;SDS011;2377;51.734;8.950;2023-04-07T15:01:43;12.50;;;9.30;;
4726;SDS011;2377;51.734;8.950;2023-04-07T15:04:10;12.67;;;9.50;;
4726;SDS011;2377;51.734;8.950;2023-04-07T15:06:39;13.23;;;9.63;;
4726;SDS011;2377;51.734;8.950;2023-04-07T15:09:07;14.53;;;9.83;;
4726;SDS011;2377;51.734;8.950;2023-04-07T15:11:35;12.37;;;9.27;;
4726;SDS011;2377;51.734;8.950;2023-04-07T15:14:02;13.00;;;9.03;;
4726;SDS011;2377;51.734;8.950;2023-04-07T15:16:31;12.67;;;9.63;;
4726;SDS011;2377;51.734;8.950;2023-04-07T15:18:58;12.90;;;8.97;;
4726;SDS011;2377;51.734;8.950;2023-04-07T15:21:25;13.10;;;9.77;;